KSPW/SPW METAR and TAF weather

Enter ICAO airport designator
Station Type Date Time Source
KSPW METAR 2020/04/06 13:53 UTC NOAA

KSPW 061353Z AUTO 14009KT 9SM FEW009 BKN015 OVC047 10/07 A2988 RMK AO2 SLP123 T01000067


Station Type Date Time Source
KSPW Decoded METAR 2020/04/06 13:53 UTC NOAA

SPENCER MUNICIPAL AIRPORT, IA, United States (KSPW) 43-10N 95-13W 403M
Apr 06, 2020 - 09:53 AM EDT / 2020.04.06 1353 UTC
Wind: from the SE (140 degrees) at 10 MPH (9 KT):0
Visibility: 9 mile(s):0
Sky conditions: overcast
Temperature: 50.0 F (10.0 C)
Dew Point: 44.1 F (6.7 C)
Relative Humidity: 79%
Pressure (altimeter): 29.88 in. Hg (1011 hPa)
ob: KSPW 061353Z AUTO 14009KT 9SM FEW009 BKN015 OVC047 10/07 A2988 RMK AO2 SLP123 T01000067
cycle: 14

Station Type Date Time Source
KSPW TAF UTC NOAA

Error!

Example: see airport list